Terminal Aerodrome Forecast
Issued by NWS Louisville, KY

Home | Current Version | Previous Version | Text Only | Print | Product List | Glossary On
Versions: 1 2 3 4 5 6 7 8 9 10 11 12 13 14 15
000
FTUS43 KLMK 211700
TAFSDF
TAF
KSDF 211724Z 2118/2224 10007KT P6SM SKC
     FM220200 10004KT P6SM SCT040
     FM220700 16006KT P6SM VCSH BKN040 WS020/22037KT
     FM221300 19011KT P6SM BKN060=

USA.gov is the U.S. government's official web portal to all federal, state and local government web resources and services.